MGH701 LTAI-EDDK
Flight info
| Callsign | MGH701 |
|---|---|
| Flight time | N/A |
| Altitude | 38000 |
| Route | EKNUD1F EKNUD UQ26 BKZ DCT IBLAX DCT BGS L622 GONGO DCT RASUB DCT TEGRI DCT BEGLA DCT FMD DCT DITIS DCT RAPET T843 VELIS/N0486F320 DCT MASEK T841 ERNEP ERNEP1E |
| Aircraft | B77W/H-SDE1E2E3FGHIJ2J3J4J5M1RWXY/LB1D1 |
Departure
| Time | N/A |
|---|---|
| Airport | Antalya International Airport (LTAI) |
Arrival
| Time | 2026-04-20 22:05 |
|---|---|
| Airport | Cologne Bonn Airport (EDDK) |
| Time | Latitude | Longitude | Altitude | Speed | Heading |
|---|---|---|---|---|---|
| 2026-04-20 21:22 | 49.69047 | 13.44739 | 38104 ft | 452 kts | 305° |
| 2026-04-20 21:22 | 49.72688 | 13.36817 | 38101 ft | 452 kts | 305° |
| 2026-04-20 21:23 | 49.76321 | 13.28887 | 38106 ft | 452 kts | 305° |
| 2026-04-20 21:23 | 49.79948 | 13.20946 | 38101 ft | 452 kts | 305° |
| 2026-04-20 21:24 | 49.83567 | 13.13000 | 38103 ft | 452 kts | 305° |
| 2026-04-20 21:24 | 49.85376 | 13.09018 | 38097 ft | 452 kts | 305° |
| 2026-04-20 21:25 | 49.90963 | 12.96684 | 38102 ft | 452 kts | 305° |
| 2026-04-20 21:25 | 49.94567 | 12.88698 | 38102 ft | 452 kts | 305° |
| 2026-04-20 21:26 | 49.98169 | 12.80691 | 38082 ft | 453 kts | 305° |
| 2026-04-20 21:26 | 50.01769 | 12.72664 | 38094 ft | 453 kts | 305° |
| 2026-04-20 21:27 | 50.05369 | 12.64614 | 38095 ft | 453 kts | 305° |
| 2026-04-20 21:27 | 50.08967 | 12.56541 | 38099 ft | 454 kts | 305° |
| 2026-04-20 21:28 | 50.12566 | 12.48444 | 38108 ft | 454 kts | 305° |
| 2026-04-20 21:28 | 50.16153 | 12.40339 | 38109 ft | 454 kts | 303° |
| 2026-04-20 21:29 | 50.19059 | 12.31602 | 38136 ft | 455 kts | 293° |
| 2026-04-20 21:29 | 50.20955 | 12.22192 | 38133 ft | 456 kts | 285° |
| 2026-04-20 21:30 | 50.22424 | 12.12561 | 38117 ft | 456 kts | 284° |
| 2026-04-20 21:30 | 50.23924 | 12.02928 | 38110 ft | 456 kts | 285° |
| 2026-04-20 21:31 | 50.25442 | 11.93302 | 38104 ft | 456 kts | 285° |
| 2026-04-20 21:31 | 50.26930 | 11.83661 | 38102 ft | 457 kts | 285° |
| 2026-04-20 21:32 | 50.28410 | 11.74002 | 38118 ft | 457 kts | 284° |
| 2026-04-20 21:32 | 50.29888 | 11.64334 | 38116 ft | 457 kts | 284° |
| 2026-04-20 21:33 | 50.31346 | 11.54715 | 38112 ft | 457 kts | 284° |
| 2026-04-20 21:33 | 50.32799 | 11.45021 | 38134 ft | 458 kts | 284° |
| 2026-04-20 21:34 | 50.34246 | 11.35317 | 38148 ft | 458 kts | 284° |
| 2026-04-20 21:34 | 50.35688 | 11.25599 | 38157 ft | 458 kts | 284° |
| 2026-04-20 21:35 | 50.37112 | 11.15878 | 38160 ft | 458 kts | 284° |
| 2026-04-20 21:35 | 50.38515 | 11.06139 | 38161 ft | 458 kts | 284° |
| 2026-04-20 21:36 | 50.39911 | 10.96393 | 38158 ft | 459 kts | 284° |
| 2026-04-20 21:36 | 50.41302 | 10.86639 | 38176 ft | 458 kts | 284° |
| 2026-04-20 21:37 | 50.42686 | 10.76883 | 38174 ft | 458 kts | 284° |
| 2026-04-20 21:37 | 50.44069 | 10.67123 | 38164 ft | 458 kts | 284° |
| 2026-04-20 21:38 | 50.45459 | 10.57530 | 37744 ft | 446 kts | 284° |
| 2026-04-20 21:38 | 50.46142 | 10.52803 | 37308 ft | 442 kts | 284° |
| 2026-04-20 21:38 | 50.46804 | 10.48135 | 36853 ft | 438 kts | 283° |
| 2026-04-20 21:38 | 50.47303 | 10.43437 | 36397 ft | 434 kts | 279° |
| 2026-04-20 21:39 | 50.47712 | 10.38760 | 35954 ft | 430 kts | 279° |
| 2026-04-20 21:39 | 50.48098 | 10.34122 | 35489 ft | 427 kts | 279° |
| 2026-04-20 21:39 | 50.48473 | 10.29567 | 35034 ft | 425 kts | 278° |
| 2026-04-20 21:39 | 50.48850 | 10.24989 | 34569 ft | 422 kts | 279° |
| 2026-04-20 21:40 | 50.49229 | 10.20431 | 34084 ft | 420 kts | 278° |
| 2026-04-20 21:40 | 50.49607 | 10.15900 | 33538 ft | 417 kts | 279° |
| 2026-04-20 21:40 | 50.49983 | 10.11400 | 33053 ft | 414 kts | 279° |
| 2026-04-20 21:40 | 50.50355 | 10.06938 | 32583 ft | 410 kts | 279° |
| 2026-04-20 21:41 | 50.50723 | 10.02513 | 32130 ft | 407 kts | 279° |
| 2026-04-20 21:41 | 50.51088 | 9.98113 | 31673 ft | 405 kts | 279° |
| 2026-04-20 21:41 | 50.51449 | 9.93747 | 31233 ft | 402 kts | 279° |
| 2026-04-20 21:41 | 50.51807 | 9.89393 | 30789 ft | 400 kts | 279° |
| 2026-04-20 21:42 | 50.52160 | 9.85072 | 30361 ft | 398 kts | 279° |
| 2026-04-20 21:42 | 50.52510 | 9.80767 | 29867 ft | 396 kts | 279° |
| 2026-04-20 21:42 | 50.52857 | 9.76488 | 29379 ft | 393 kts | 278° |
| 2026-04-20 21:42 | 50.53199 | 9.72249 | 28941 ft | 389 kts | 278° |
| 2026-04-20 21:43 | 50.53536 | 9.68045 | 28484 ft | 386 kts | 278° |
| 2026-04-20 21:43 | 50.53869 | 9.63879 | 28061 ft | 383 kts | 278° |
| 2026-04-20 21:43 | 50.54197 | 9.59745 | 27615 ft | 380 kts | 278° |
| 2026-04-20 21:43 | 50.54522 | 9.55636 | 27185 ft | 378 kts | 278° |
| 2026-04-20 21:44 | 50.54844 | 9.51556 | 26749 ft | 375 kts | 278° |
| 2026-04-20 21:44 | 50.55163 | 9.47490 | 26327 ft | 373 kts | 278° |
| 2026-04-20 21:44 | 50.55478 | 9.43446 | 25902 ft | 372 kts | 278° |
| 2026-04-20 21:44 | 50.55791 | 9.39427 | 25459 ft | 370 kts | 278° |
| 2026-04-20 21:45 | 50.56103 | 9.35392 | 24908 ft | 373 kts | 278° |
| 2026-04-20 21:45 | 50.56415 | 9.31342 | 24457 ft | 373 kts | 277° |
| 2026-04-20 21:45 | 50.56725 | 9.27299 | 24023 ft | 372 kts | 277° |
| 2026-04-20 21:45 | 50.57033 | 9.23262 | 23573 ft | 372 kts | 277° |
| 2026-04-20 21:46 | 50.57339 | 9.19231 | 23058 ft | 370 kts | 277° |
| 2026-04-20 21:46 | 50.57642 | 9.15217 | 22631 ft | 368 kts | 277° |
| 2026-04-20 21:46 | 50.57941 | 9.11233 | 22193 ft | 366 kts | 277° |
| 2026-04-20 21:46 | 50.58237 | 9.07272 | 21779 ft | 363 kts | 277° |
| 2026-04-20 21:47 | 50.58530 | 9.03345 | 21347 ft | 361 kts | 277° |
| 2026-04-20 21:47 | 50.58821 | 8.99425 | 20932 ft | 359 kts | 277° |
| 2026-04-20 21:47 | 50.59108 | 8.95531 | 20516 ft | 357 kts | 277° |
| 2026-04-20 21:47 | 50.59393 | 8.91654 | 20099 ft | 356 kts | 277° |
| 2026-04-20 21:48 | 50.59675 | 8.87795 | 19680 ft | 354 kts | 277° |
| 2026-04-20 21:48 | 50.59955 | 8.83954 | 19264 ft | 353 kts | 277° |
| 2026-04-20 21:48 | 50.60232 | 8.80123 | 18851 ft | 352 kts | 277° |
| 2026-04-20 21:48 | 50.60415 | 8.77593 | 18578 ft | 351 kts | 277° |
| 2026-04-20 21:49 | 50.60689 | 8.73781 | 18116 ft | 350 kts | 277° |
| 2026-04-20 21:49 | 50.60961 | 8.69988 | 17661 ft | 348 kts | 277° |
| 2026-04-20 21:49 | 50.61230 | 8.66211 | 17235 ft | 346 kts | 277° |
| 2026-04-20 21:49 | 50.61496 | 8.62459 | 16810 ft | 344 kts | 277° |
| 2026-04-20 21:50 | 50.61844 | 8.57524 | 16275 ft | 341 kts | 277° |
| 2026-04-20 21:50 | 50.62104 | 8.53820 | 15880 ft | 339 kts | 277° |
| 2026-04-20 21:50 | 50.62278 | 8.51328 | 15601 ft | 338 kts | 277° |
| 2026-04-20 21:50 | 50.62534 | 8.47653 | 15195 ft | 337 kts | 277° |
| 2026-04-20 21:51 | 50.62788 | 8.43995 | 14803 ft | 335 kts | 277° |
| 2026-04-20 21:51 | 50.63039 | 8.40351 | 14375 ft | 334 kts | 276° |
| 2026-04-20 21:51 | 50.63289 | 8.36713 | 13968 ft | 333 kts | 276° |
| 2026-04-20 21:51 | 50.63535 | 8.33091 | 13512 ft | 332 kts | 276° |
| 2026-04-20 21:52 | 50.63781 | 8.29479 | 13111 ft | 331 kts | 276° |
| 2026-04-20 21:52 | 50.64024 | 8.25884 | 12702 ft | 329 kts | 276° |
| 2026-04-20 21:52 | 50.64265 | 8.22305 | 12310 ft | 328 kts | 277° |
| 2026-04-20 21:52 | 50.64504 | 8.18746 | 11907 ft | 326 kts | 277° |
| 2026-04-20 21:53 | 50.64741 | 8.15210 | 11525 ft | 324 kts | 277° |
| 2026-04-20 21:53 | 50.64975 | 8.11676 | 11130 ft | 323 kts | 277° |
| 2026-04-20 21:53 | 50.65208 | 8.08162 | 10743 ft | 322 kts | 277° |
| 2026-04-20 21:53 | 50.65438 | 8.04657 | 10359 ft | 321 kts | 277° |
| 2026-04-20 21:54 | 50.65667 | 8.01171 | 10087 ft | 316 kts | 277° |
| 2026-04-20 21:54 | 50.65891 | 7.97823 | 9917 ft | 308 kts | 277° |
| 2026-04-20 21:54 | 50.66114 | 7.94491 | 9609 ft | 304 kts | 277° |
| 2026-04-20 21:54 | 50.66331 | 7.91182 | 9277 ft | 301 kts | 277° |
| 2026-04-20 21:55 | 50.66543 | 7.87903 | 8944 ft | 299 kts | 277° |
| 2026-04-20 21:55 | 50.66751 | 7.84645 | 8618 ft | 297 kts | 277° |
| 2026-04-20 21:55 | 50.66957 | 7.81417 | 8267 ft | 296 kts | 277° |
| 2026-04-20 21:55 | 50.67160 | 7.78213 | 8013 ft | 291 kts | 277° |
| 2026-04-20 21:56 | 50.67357 | 7.75082 | 7838 ft | 284 kts | 277° |
| 2026-04-20 21:56 | 50.67555 | 7.71941 | 7265 ft | 292 kts | 277° |
| 2026-04-20 21:56 | 50.67751 | 7.68792 | 7077 ft | 284 kts | 277° |
| 2026-04-20 21:56 | 50.67941 | 7.65739 | 6949 ft | 276 kts | 277° |
| 2026-04-20 21:57 | 50.68125 | 7.62757 | 6754 ft | 270 kts | 277° |
| 2026-04-20 21:57 | 50.68304 | 7.59851 | 6582 ft | 264 kts | 277° |
| 2026-04-20 21:57 | 50.68481 | 7.56991 | 6315 ft | 261 kts | 277° |
| 2026-04-20 21:57 | 50.68654 | 7.54151 | 5997 ft | 260 kts | 277° |
| 2026-04-20 21:58 | 50.68827 | 7.51320 | 5687 ft | 259 kts | 277° |
| 2026-04-20 21:58 | 50.68999 | 7.48505 | 5375 ft | 258 kts | 277° |
| 2026-04-20 21:58 | 50.69304 | 7.45786 | 5119 ft | 249 kts | 289° |
| 2026-04-20 21:58 | 50.69869 | 7.43230 | 4845 ft | 245 kts | 292° |
| 2026-04-20 21:59 | 50.70467 | 7.40730 | 4568 ft | 239 kts | 293° |
| 2026-04-20 21:59 | 50.71046 | 7.38355 | 4264 ft | 225 kts | 296° |
| 2026-04-20 21:59 | 50.71893 | 7.36405 | 3972 ft | 209 kts | 316° |
| 2026-04-20 21:59 | 50.72895 | 7.34836 | 3680 ft | 198 kts | 318° |
| 2026-04-20 22:00 | 50.73877 | 7.33382 | 3510 ft | 189 kts | 320° |
| 2026-04-20 22:00 | 50.74838 | 7.31990 | 3241 ft | 186 kts | 320° |
| 2026-04-20 22:00 | 50.75776 | 7.30637 | 3007 ft | 176 kts | 321° |
| 2026-04-20 22:00 | 50.76644 | 7.29387 | 2784 ft | 162 kts | 321° |
| 2026-04-20 22:01 | 50.77435 | 7.28246 | 2529 ft | 146 kts | 322° |
| 2026-04-20 22:01 | 50.78157 | 7.27207 | 2366 ft | 139 kts | 322° |
| 2026-04-20 22:01 | 50.78873 | 7.26174 | 2196 ft | 141 kts | 322° |
| 2026-04-20 22:01 | 50.79593 | 7.25132 | 1969 ft | 139 kts | 322° |
| 2026-04-20 22:02 | 50.80306 | 7.24104 | 1781 ft | 138 kts | 322° |
| 2026-04-20 22:02 | 50.81013 | 7.23081 | 1585 ft | 138 kts | 322° |
| 2026-04-20 22:02 | 50.81724 | 7.22054 | 1400 ft | 138 kts | 321° |
| 2026-04-20 22:02 | 50.82434 | 7.21030 | 1183 ft | 138 kts | 321° |
| 2026-04-20 22:03 | 50.83137 | 7.20003 | 973 ft | 138 kts | 320° |
| 2026-04-20 22:03 | 50.83838 | 7.18982 | 820 ft | 137 kts | 321° |
| 2026-04-20 22:03 | 50.84556 | 7.17958 | 624 ft | 139 kts | 320° |
| 2026-04-20 22:03 | 50.85252 | 7.16952 | 411 ft | 137 kts | 321° |
| 2026-04-20 22:04 | 50.85945 | 7.15948 | 308 ft | 129 kts | 321° |
| 2026-04-20 22:04 | 50.86533 | 7.15102 | 283 ft | 98 kts | 318° |
| 2026-04-20 22:04 | 50.86950 | 7.14500 | 263 ft | 71 kts | 317° |
| 2026-04-20 22:04 | 50.87292 | 7.14003 | 248 ft | 63 kts | 317° |
| 2026-04-20 22:05 | 50.87597 | 7.13561 | 244 ft | 56 kts | 317° |
| 2026-04-20 22:05 | 50.87866 | 7.13172 | 244 ft | 45 kts | 317° |
| 2026-04-20 22:05 | 50.87996 | 7.12950 | 244 ft | 21 kts | 292° |
| 2026-04-20 22:05 | 50.87993 | 7.12735 | 240 ft | 19 kts | 257° |
| 2026-04-20 22:06 | 50.88010 | 7.12550 | 237 ft | 16 kts | 297° |
| 2026-04-20 22:06 | 50.88065 | 7.12396 | 237 ft | 16 kts | 302° |
| 2026-04-20 22:06 | 50.88131 | 7.12252 | 237 ft | 15 kts | 306° |
| 2026-04-20 22:06 | 50.88153 | 7.12204 | 237 ft | 1 kts | 306° |
| 2026-04-20 22:07 | 50.88154 | 7.12201 | 237 ft | 1 kts | 306° |
| 2026-04-20 22:07 | 50.88159 | 7.12189 | 237 ft | 2 kts | 305° |
| 2026-04-20 22:07 | 50.88165 | 7.12162 | 237 ft | 3 kts | 272° |
| 2026-04-20 22:07 | 50.88151 | 7.12126 | 237 ft | 4 kts | 229° |
| 2026-04-20 22:08 | 50.88124 | 7.12089 | 237 ft | 6 kts | 219° |
| 2026-04-20 22:08 | 50.88108 | 7.12070 | 237 ft | 0 kts | 217° |